createdAt,value
2022-11-24T00:00:25.419Z,85.73
2022-11-24T00:02:56.481Z,91.50
2022-11-24T00:05:27.789Z,88.07
2022-11-24T00:07:58.374Z,87.33
2022-11-24T00:10:28.961Z,92.80
2022-11-24T00:12:59.536Z,86.03
2022-11-24T00:15:30.104Z,91.47
2022-11-24T00:18:02.107Z,91.20
2022-11-24T00:20:33.739Z,90.37
2022-11-24T00:23:04.361Z,83.57
2022-11-24T00:25:37.145Z,93.27
2022-11-24T00:28:09.383Z,85.70
2022-11-24T00:30:39.956Z,84.47
2022-11-24T00:33:10.755Z,85.90
2022-11-24T00:35:41.727Z,83.90
2022-11-24T00:38:12.255Z,90.47
2022-11-24T00:40:44.329Z,91.33
2022-11-24T00:43:14.975Z,84.10
2022-11-24T00:45:45.678Z,90.73
2022-11-24T00:48:16.941Z,86.43
2022-11-24T00:51:00.772Z,79.17
2022-11-24T00:53:33.506Z,85.73
2022-11-24T00:56:04.351Z,80.80
2022-11-24T00:58:35.329Z,88.97
2022-11-24T01:01:17.633Z,89.47
2022-11-24T01:03:48.754Z,88.00
2022-11-24T01:06:21.481Z,89.00
2022-11-24T01:08:52.851Z,92.40
2022-11-24T01:11:29.564Z,87.30
2022-11-24T01:14:00.706Z,90.97
2022-11-24T01:16:34.687Z,88.30
2022-11-24T01:19:05.185Z,84.47
2022-11-24T01:21:35.678Z,85.10
2022-11-24T01:24:06.859Z,85.23
2022-11-24T01:26:37.494Z,88.97
2022-11-24T01:29:08.182Z,87.03
2022-11-24T01:31:38.991Z,86.53
2022-11-24T01:34:09.728Z,85.70
2022-11-24T01:36:40.678Z,86.30
2022-11-24T01:39:11.223Z,81.83
2022-11-24T01:41:41.898Z,83.77
2022-11-24T01:44:23.975Z,95.53
2022-11-24T01:47:00.661Z,87.97
2022-11-24T01:49:52.082Z,88.03
2022-11-24T01:52:39.338Z,81.33
2022-11-24T01:55:13.062Z,79.87
2022-11-24T01:57:46.609Z,86.30
2022-11-24T02:00:18.880Z,81.07
2022-11-24T02:02:49.422Z,83.27
2022-11-24T02:05:38.756Z,77.80
2022-11-24T02:08:05.018Z,77.43
2022-11-24T02:10:35.954Z,88.20
2022-11-24T02:13:07.521Z,88.73
2022-11-24T02:15:38.119Z,78.83
2022-11-24T02:18:10.379Z,80.27
2022-11-24T02:20:41.012Z,76.67
2022-11-24T02:23:26.643Z,80.43
2022-11-24T02:26:18.963Z,79.77
2022-11-24T02:28:50.954Z,83.33
2022-11-24T02:31:22.343Z,76.47
2022-11-24T02:33:54.793Z,79.63
2022-11-24T02:36:26.489Z,81.87
2022-11-24T02:38:57.400Z,80.87
2022-11-24T02:41:29.861Z,91.30
2022-11-24T02:44:02.413Z,81.77
2022-11-24T02:46:32.957Z,88.30
2022-11-24T02:49:03.417Z,74.10
2022-11-24T02:51:34.634Z,82.10
2022-11-24T02:54:05.203Z,79.50
2022-11-24T02:56:35.701Z,82.13
2022-11-24T02:59:06.329Z,84.40
2022-11-24T03:01:36.906Z,77.13
2022-11-24T03:04:07.694Z,85.17
2022-11-24T03:06:38.406Z,92.20
2022-11-24T03:09:08.996Z,86.13
2022-11-24T03:11:40.174Z,80.70
2022-11-24T03:14:12.516Z,87.53
2022-11-24T03:16:44.122Z,85.63
2022-11-24T03:19:14.896Z,88.73
2022-11-24T03:21:45.741Z,87.87
2022-11-24T03:24:16.343Z,83.40
2022-11-24T03:26:46.902Z,76.33
2022-11-24T03:29:17.897Z,85.33
2022-11-24T03:31:48.368Z,76.70
2022-11-24T03:34:18.961Z,77.37
2022-11-24T03:36:49.627Z,81.80
2022-11-24T03:39:20.136Z,81.97
2022-11-24T03:41:54.475Z,84.27
2022-11-24T03:44:26.195Z,80.20
2022-11-24T03:46:56.661Z,79.53
2022-11-24T03:49:27.440Z,93.57
2022-11-24T03:51:58.078Z,78.57
2022-11-24T03:54:29.965Z,86.07
2022-11-24T03:57:00.667Z,94.37
2022-11-24T03:59:31.088Z,80.63
2022-11-24T04:02:01.627Z,80.13
2022-11-24T04:04:32.808Z,84.97
2022-11-24T04:07:04.814Z,84.37
2022-11-24T04:09:35.488Z,79.63
2022-11-24T04:12:24.378Z,78.93
2022-11-24T04:14:55.056Z,83.17
2022-11-24T04:17:25.620Z,82.20
2022-11-24T04:19:56.252Z,82.73
2022-11-24T04:22:26.985Z,80.97
2022-11-24T04:24:57.573Z,78.20
2022-11-24T04:27:28.044Z,70.53
2022-11-24T04:29:58.563Z,77.90
2022-11-24T04:32:29.223Z,67.07
2022-11-24T04:34:59.864Z,72.33
2022-11-24T04:37:30.491Z,72.00
2022-11-24T04:40:01.132Z,76.83
2022-11-24T04:42:31.658Z,77.87
2022-11-24T04:45:02.558Z,77.50
2022-11-24T04:47:33.500Z,68.57
2022-11-24T04:50:04.954Z,71.47
2022-11-24T04:52:35.438Z,80.13
2022-11-24T04:55:06.319Z,73.57
2022-11-24T04:57:36.774Z,72.90
2022-11-24T05:00:09.336Z,69.87
2022-11-24T05:02:40.126Z,70.90
2022-11-24T05:05:12.142Z,69.67
2022-11-24T05:07:42.901Z,65.63
2022-11-24T05:10:31.335Z,66.40
2022-11-24T05:13:03.538Z,69.77
2022-11-24T05:15:34.407Z,66.23
2022-11-24T05:18:11.179Z,66.27
2022-11-24T05:20:45.159Z,62.70
2022-11-24T05:23:16.043Z,69.40
2022-11-24T05:25:48.097Z,64.63
2022-11-24T05:28:19.626Z,62.60
2022-11-24T05:30:52.301Z,74.77
2022-11-24T05:33:23.264Z,64.47
2022-11-24T05:35:54.346Z,71.93
2022-11-24T05:38:26.520Z,68.67
2022-11-24T05:41:05.173Z,71.40
2022-11-24T05:43:36.199Z,69.10
2022-11-24T05:46:06.841Z,67.47
2022-11-24T05:48:38.525Z,74.10
2022-11-24T05:51:09.517Z,68.80
2022-11-24T05:53:40.265Z,66.90
2022-11-24T05:56:10.674Z,66.77
2022-11-24T05:58:41.232Z,66.10
2022-11-24T06:01:11.773Z,63.67
2022-11-24T06:03:42.445Z,61.50
2022-11-24T06:06:16.843Z,62.97
2022-11-24T06:08:49.164Z,57.73
2022-11-24T06:11:19.654Z,62.03
2022-11-24T06:13:50.445Z,60.27
2022-11-24T06:16:21.133Z,64.77
2022-11-24T06:18:51.873Z,55.03
2022-11-24T06:21:22.663Z,61.13
2022-11-24T06:23:54.707Z,64.67
2022-11-24T06:26:25.567Z,55.33
2022-11-24T06:28:57.579Z,54.27
2022-11-24T06:31:29.534Z,54.87
2022-11-24T06:34:02.519Z,62.83
2022-11-24T06:36:33.997Z,57.83
2022-11-24T06:39:05.837Z,53.83
2022-11-24T06:41:37.135Z,55.87
2022-11-24T06:44:08.670Z,54.87
2022-11-24T06:46:39.175Z,51.07
2022-11-24T06:49:10.931Z,51.90
2022-11-24T06:51:43.128Z,57.23
2022-11-24T06:54:21.426Z,51.70
2022-11-24T06:56:54.982Z,54.50
2022-11-24T06:59:26.631Z,52.23
2022-11-24T07:01:57.765Z,55.60
2022-11-24T07:04:28.397Z,48.20
2022-11-24T07:07:00.029Z,50.27
2022-11-24T07:09:30.458Z,49.77
2022-11-24T07:12:02.358Z,52.83
2022-11-24T07:14:33.734Z,47.73
2022-11-24T07:17:05.267Z,50.20
2022-11-24T07:19:35.808Z,44.33
2022-11-24T07:22:06.301Z,45.60
2022-11-24T07:24:37.406Z,42.67
2022-11-24T07:27:08.003Z,46.13
2022-11-24T07:29:38.547Z,48.77
2022-11-24T07:32:09.295Z,46.10
2022-11-24T07:34:39.912Z,44.67
2022-11-24T07:37:10.375Z,47.40
2022-11-24T07:39:41.069Z,49.03
2022-11-24T07:42:11.597Z,48.43
2022-11-24T07:44:42.216Z,45.37
2022-11-24T07:47:12.765Z,49.40
2022-11-24T07:49:43.450Z,49.13
2022-11-24T07:52:13.959Z,47.20
2022-11-24T07:54:44.533Z,50.70
2022-11-24T07:57:14.935Z,47.70
2022-11-24T07:59:45.411Z,46.00
2022-11-24T08:02:15.864Z,49.17
2022-11-24T08:04:46.601Z,52.70
2022-11-24T08:07:17.476Z,48.03
2022-11-24T08:09:49.814Z,53.60
2022-11-24T08:12:23.926Z,44.57
2022-11-24T08:14:57.247Z,48.17
2022-11-24T08:17:29.831Z,50.90
2022-11-24T08:20:00.383Z,48.47
2022-11-24T08:22:30.820Z,47.03
2022-11-24T08:25:01.184Z,50.00
2022-11-24T08:27:31.716Z,47.13
2022-11-24T08:30:02.194Z,48.43
2022-11-24T08:32:32.971Z,49.57
2022-11-24T08:35:18.406Z,50.60
2022-11-24T08:37:35.587Z,47.60
2022-11-24T08:40:08.421Z,47.53
2022-11-24T08:42:39.941Z,44.67
2022-11-24T08:45:20.832Z,42.80
2022-11-24T08:47:44.997Z,43.57
2022-11-24T08:50:15.495Z,45.13
2022-11-24T08:52:46.087Z,44.77
2022-11-24T08:55:19.587Z,44.27
2022-11-24T08:57:49.998Z,44.33
2022-11-24T09:00:23.748Z,43.70
2022-11-24T09:02:58.741Z,41.80
2022-11-24T09:05:51.310Z,41.63
2022-11-24T09:08:01.516Z,44.90
2022-11-24T09:10:33.147Z,43.47
2022-11-24T09:13:03.896Z,44.60
2022-11-24T09:15:37.812Z,40.90
2022-11-24T09:18:08.636Z,42.70
2022-11-24T09:20:41.091Z,41.23
2022-11-24T09:23:11.605Z,39.97
2022-11-24T09:25:42.291Z,40.37
2022-11-24T09:28:15.871Z,39.83
2022-11-24T09:30:46.411Z,39.27
2022-11-24T09:33:18.766Z,41.83
2022-11-24T09:35:52.594Z,37.77
2022-11-24T09:38:24.159Z,40.30
2022-11-24T09:40:58.084Z,38.77
2022-11-24T09:43:43.511Z,39.43
2022-11-24T09:46:23.284Z,42.23
2022-11-24T09:48:56.875Z,41.37
2022-11-24T09:51:30.495Z,38.40
2022-11-24T09:54:16.389Z,41.60
2022-11-24T09:56:51.296Z,40.60
2022-11-24T09:59:24.059Z,38.87
2022-11-24T10:01:56.616Z,42.77
2022-11-24T10:04:43.858Z,38.10
2022-11-24T10:07:18.723Z,38.60
2022-11-24T10:10:13.193Z,38.40
2022-11-24T10:13:04.072Z,38.63
2022-11-24T10:15:43.959Z,41.67
2022-11-24T10:18:33.323Z,39.33
2022-11-24T10:21:06.832Z,41.47
2022-11-24T10:24:12.412Z,40.90
2022-11-24T10:26:46.907Z,40.40
2022-11-24T10:29:23.031Z,39.43
2022-11-24T10:31:57.826Z,37.90
2022-11-24T10:34:31.386Z,36.50
2022-11-24T10:37:10.858Z,37.63
2022-11-24T10:40:04.176Z,37.53
2022-11-24T10:42:40.122Z,36.47
2022-11-24T10:45:16.512Z,40.53
2022-11-24T10:47:55.012Z,36.50
2022-11-24T10:50:31.325Z,38.43
2022-11-24T10:53:28.762Z,38.77
2022-11-24T10:56:02.754Z,36.33
2022-11-24T10:58:38.232Z,36.53
2022-11-24T11:01:17.922Z,41.30
2022-11-24T11:03:54.724Z,40.13
2022-11-24T11:06:28.051Z,40.13
2022-11-24T11:09:18.122Z,42.23
2022-11-24T11:11:49.744Z,39.20
2022-11-24T11:14:38.186Z,40.30
2022-11-24T11:17:35.131Z,38.20
2022-11-24T11:20:09.022Z,37.43
2022-11-24T11:22:40.179Z,38.73
2022-11-24T11:25:16.913Z,42.10
2022-11-24T11:27:48.478Z,38.90
2022-11-24T11:35:37.214Z,38.77
2022-11-24T11:38:09.037Z,35.70
2022-11-24T11:40:42.746Z,36.60
2022-11-24T11:43:32.969Z,38.37
2022-11-24T11:46:12.567Z,35.33
2022-11-24T11:48:48.693Z,33.20
2022-11-24T11:51:51.778Z,38.53
2022-11-24T11:54:49.814Z,35.63
2022-11-24T11:57:34.447Z,35.80
2022-11-24T12:00:07.894Z,37.60
2022-11-24T12:02:57.570Z,36.17
2022-11-24T12:06:00.073Z,37.30
2022-11-24T12:09:18.609Z,36.50
2022-11-24T12:11:27.200Z,39.90
2022-11-24T12:14:29.427Z,36.90
2022-11-24T12:17:02.163Z,37.20
2022-11-24T12:19:52.047Z,34.97
2022-11-24T12:22:34.707Z,35.63
2022-11-24T12:25:17.477Z,37.27
2022-11-24T12:28:10.446Z,34.57
2022-11-24T12:30:46.715Z,38.05
2022-11-24T12:33:50.585Z,35.50
2022-11-24T12:36:36.915Z,38.23
2022-11-24T12:39:19.126Z,33.27
2022-11-24T12:42:10.958Z,35.27
2022-11-24T12:44:53.619Z,34.67
2022-11-24T12:47:43.628Z,34.33
2022-11-24T12:50:23.001Z,35.95
2022-11-24T12:53:00.981Z,36.85
2022-11-24T12:55:34.828Z,33.97
2022-11-24T12:58:32.503Z,37.70
2022-11-24T13:01:14.638Z,33.47
2022-11-24T13:04:00.145Z,34.70
2022-11-24T13:06:36.856Z,35.10
2022-11-24T13:09:12.448Z,33.13
2022-11-24T13:12:03.302Z,33.47
2022-11-24T13:14:40.116Z,33.30
2022-11-24T13:17:53.981Z,37.20
2022-11-24T13:20:23.382Z,35.17
2022-11-24T13:22:59.243Z,34.03
2022-11-24T13:25:33.837Z,32.53
2022-11-24T13:28:07.423Z,34.35
2022-11-24T13:30:49.789Z,34.80
2022-11-24T13:33:32.547Z,35.03
2022-11-24T13:36:12.871Z,36.20
2022-11-24T13:38:47.021Z,35.87
2022-11-24T13:41:39.221Z,34.33
2022-11-24T13:44:25.285Z,31.90
2022-11-24T13:47:05.592Z,35.00
2022-11-24T13:49:46.795Z,33.87
2022-11-24T13:52:42.974Z,34.98
2022-11-24T13:55:16.731Z,31.50
2022-11-24T13:57:54.190Z,34.53
2022-11-24T14:00:30.898Z,32.53
2022-11-24T14:03:08.229Z,31.43
2022-11-24T14:05:42.627Z,32.50
2022-11-24T14:08:16.263Z,30.57
2022-11-24T14:10:47.450Z,35.47
2022-11-24T14:13:35.278Z,32.97
2022-11-24T14:16:12.316Z,34.60
2022-11-24T14:18:49.723Z,33.48
2022-11-24T14:21:29.293Z,36.23
2022-11-24T14:24:11.426Z,35.40
2022-11-24T14:26:42.699Z,37.03
2022-11-24T14:29:15.720Z,36.23
2022-11-24T14:31:55.993Z,37.23
2022-11-24T14:34:30.367Z,36.43
2022-11-24T14:37:03.229Z,35.20
2022-11-24T14:39:38.141Z,36.27
2022-11-24T14:42:20.812Z,35.63
2022-11-24T14:44:58.541Z,35.70
2022-11-24T14:47:40.971Z,35.20
2022-11-24T14:50:19.293Z,36.10
2022-11-24T14:52:57.568Z,36.47
2022-11-24T14:55:32.938Z,36.33
2022-11-24T14:58:05.405Z,38.75
2022-11-24T15:00:36.062Z,37.97
2022-11-24T15:03:09.743Z,36.80
2022-11-24T15:06:00.562Z,39.57
2022-11-24T15:08:37.023Z,37.13
2022-11-24T15:11:08.501Z,39.40
2022-11-24T15:13:40.402Z,37.23
2022-11-24T15:16:21.499Z,38.87
2022-11-24T15:19:01.158Z,36.67
2022-11-24T15:21:38.611Z,37.27
2022-11-24T15:24:18.023Z,35.03
2022-11-24T15:26:48.819Z,40.83
2022-11-24T15:29:19.753Z,38.53
2022-11-24T15:31:52.775Z,35.85
2022-11-24T15:34:22.447Z,31.93
2022-11-24T15:36:53.099Z,35.27
2022-11-24T15:39:23.711Z,35.90
2022-11-24T15:41:54.374Z,37.50
2022-11-24T15:44:25.301Z,35.07
2022-11-24T15:46:57.101Z,36.87
2022-11-24T15:49:27.805Z,38.60
2022-11-24T15:51:58.557Z,40.00
2022-11-24T15:54:29.684Z,37.33
2022-11-24T15:57:01.023Z,40.48
2022-11-24T15:59:31.810Z,37.13
2022-11-24T16:02:02.258Z,37.87
2022-11-24T16:04:35.076Z,34.47
2022-11-24T16:07:07.446Z,34.00
2022-11-24T16:09:38.477Z,36.03
2022-11-24T16:12:10.841Z,44.65
2022-11-24T16:14:43.665Z,34.67
2022-11-24T16:17:15.632Z,33.83
2022-11-24T16:19:46.151Z,38.73
2022-11-24T16:22:16.780Z,37.53
2022-11-24T16:24:47.172Z,37.33
2022-11-24T16:27:17.912Z,37.05
2022-11-24T16:29:48.308Z,35.87
2022-11-24T16:32:19.122Z,37.87
2022-11-24T16:34:49.795Z,38.43
2022-11-24T16:37:22.316Z,38.27
2022-11-24T16:39:53.503Z,40.30
2022-11-24T16:42:24.435Z,40.67
2022-11-24T16:44:57.964Z,39.70
2022-11-24T16:47:28.516Z,41.97
2022-11-24T16:50:00.095Z,40.83
2022-11-24T16:52:31.186Z,44.75
2022-11-24T16:55:03.914Z,46.47
2022-11-24T16:57:36.030Z,40.97
2022-11-24T17:00:08.235Z,42.70
2022-11-24T17:02:39.643Z,43.33
2022-11-24T17:05:10.688Z,39.77
2022-11-24T17:07:42.884Z,46.65
2022-11-24T17:10:13.409Z,45.30
2022-11-24T17:12:44.793Z,40.47
2022-11-24T17:15:32.570Z,41.50
2022-11-24T17:18:16.326Z,45.75
2022-11-24T17:20:21.428Z,43.53
2022-11-24T17:22:58.542Z,43.47
2022-11-24T17:25:29.977Z,43.50
2022-11-24T17:28:00.559Z,41.87
2022-11-24T17:30:31.366Z,43.63
2022-11-24T17:33:03.822Z,42.50
2022-11-24T17:35:35.655Z,42.73
2022-11-24T17:38:07.781Z,46.73
2022-11-24T17:40:38.375Z,46.93
2022-11-24T17:43:09.904Z,42.60
2022-11-24T17:45:42.023Z,44.73
2022-11-24T17:48:13.794Z,43.83
2022-11-24T17:50:46.527Z,43.23
2022-11-24T17:53:18.579Z,45.37
2022-11-24T17:55:50.392Z,45.20
2022-11-24T17:58:20.929Z,46.20
2022-11-24T18:00:52.926Z,47.50
2022-11-24T18:03:26.669Z,46.47
2022-11-24T18:05:57.633Z,46.07
2022-11-24T18:08:28.472Z,44.83
2022-11-24T18:11:04.230Z,45.10
2022-11-24T18:13:55.632Z,44.37
2022-11-24T18:16:10.349Z,44.83
2022-11-24T18:18:45.977Z,43.53
2022-11-24T18:21:18.280Z,45.40
2022-11-24T18:23:49.943Z,41.67
2022-11-24T18:26:22.101Z,40.60
2022-11-24T18:28:53.272Z,46.60
2022-11-24T18:31:24.666Z,43.40
2022-11-24T18:33:55.418Z,46.93
2022-11-24T18:36:30.217Z,47.67
2022-11-24T18:39:04.670Z,47.17
2022-11-24T18:41:38.739Z,42.98
2022-11-24T18:44:10.760Z,42.97
2022-11-24T18:46:45.600Z,44.67
2022-11-24T18:49:17.707Z,47.73
2022-11-24T18:51:48.306Z,48.97
2022-11-24T18:54:18.750Z,49.20
2022-11-24T18:56:49.428Z,53.60
2022-11-24T18:59:20.399Z,62.00
2022-11-24T19:01:52.189Z,61.23
2022-11-24T19:04:24.206Z,67.10
2022-11-24T19:06:57.724Z,53.03
2022-11-24T19:09:28.245Z,46.03
2022-11-24T19:12:00.056Z,51.13
2022-11-24T19:14:31.448Z,43.53
2022-11-24T19:17:04.296Z,45.30
2022-11-24T19:19:35.950Z,43.30
2022-11-24T19:22:08.100Z,45.33
2022-11-24T19:24:39.101Z,45.73
2022-11-24T19:27:11.795Z,47.23
2022-11-24T19:29:44.006Z,43.37
2022-11-24T19:32:14.732Z,44.70
2022-11-24T19:34:45.372Z,47.17
2022-11-24T19:37:16.179Z,44.33
2022-11-24T19:39:49.321Z,43.13
2022-11-24T19:42:37.198Z,47.10
2022-11-24T19:45:08.582Z,46.20
2022-11-24T19:47:40.797Z,50.13
2022-11-24T19:50:13.255Z,48.40
2022-11-24T19:52:43.772Z,46.47
2022-11-24T19:55:14.324Z,47.37
2022-11-24T19:57:45.367Z,46.93
2022-11-24T20:00:17.694Z,45.90
2022-11-24T20:02:52.378Z,46.63
2022-11-24T20:05:23.709Z,43.70
2022-11-24T20:07:54.777Z,52.57
2022-11-24T20:10:25.342Z,46.87
2022-11-24T20:12:55.768Z,48.67
2022-11-24T20:15:26.354Z,46.90
2022-11-24T20:18:00.090Z,46.67
2022-11-24T20:20:30.634Z,45.97
2022-11-24T20:23:02.729Z,47.87
2022-11-24T20:25:36.309Z,45.77
2022-11-24T20:28:07.273Z,49.00
2022-11-24T20:30:39.249Z,42.63
2022-11-24T20:33:10.019Z,45.47
2022-11-24T20:35:41.563Z,44.20
2022-11-24T20:38:13.249Z,45.73
2022-11-24T20:40:43.891Z,44.10
2022-11-24T20:43:16.587Z,46.27
2022-11-24T20:45:48.644Z,47.30
2022-11-24T20:48:19.123Z,45.13
2022-11-24T20:50:51.552Z,48.57
2022-11-24T20:53:22.571Z,46.67
2022-11-24T20:55:53.085Z,43.30
2022-11-24T20:58:23.603Z,47.23
2022-11-24T21:00:54.073Z,46.50
2022-11-24T21:03:26.412Z,42.43
2022-11-24T21:05:58.709Z,49.80
2022-11-24T21:08:32.808Z,55.20
2022-11-24T21:11:05.136Z,51.63
2022-11-24T21:13:38.327Z,49.47
2022-11-24T21:16:23.705Z,49.87
2022-11-24T21:18:57.543Z,47.37
2022-11-24T21:21:36.699Z,47.57
2022-11-24T21:24:16.252Z,47.07
2022-11-24T21:26:47.924Z,53.30
2022-11-24T21:29:23.854Z,52.43
2022-11-24T21:31:55.359Z,48.63
2022-11-24T21:34:26.083Z,50.23
2022-11-24T21:36:57.309Z,48.87
2022-11-24T21:39:28.358Z,49.57
2022-11-24T21:41:58.934Z,50.10
2022-11-24T21:44:31.421Z,47.87
2022-11-24T21:47:01.806Z,50.73
2022-11-24T21:49:32.289Z,52.93
2022-11-24T21:52:02.894Z,47.77
2022-11-24T21:54:34.928Z,48.50
2022-11-24T21:57:05.538Z,48.33
2022-11-24T21:59:37.121Z,51.87
2022-11-24T22:02:12.997Z,49.17
2022-11-24T22:04:43.421Z,47.70
2022-11-24T22:07:17.177Z,45.90
2022-11-24T22:09:49.647Z,51.83
2022-11-24T22:12:23.246Z,46.23
2022-11-24T22:14:54.139Z,50.53
2022-11-24T22:17:24.767Z,45.97
2022-11-24T22:19:58.372Z,50.93
2022-11-24T22:22:28.805Z,46.20
2022-11-24T22:25:02.369Z,46.07
2022-11-24T22:27:33.185Z,47.27
2022-11-24T22:30:06.078Z,46.50
2022-11-24T22:32:36.534Z,47.50
2022-11-24T22:35:08.271Z,49.67
2022-11-24T22:37:40.370Z,52.73
2022-11-24T22:40:12.286Z,46.53
2022-11-24T22:42:43.009Z,47.73
2022-11-24T22:45:14.679Z,48.90
2022-11-24T22:47:45.204Z,49.23
2022-11-24T22:50:15.962Z,49.40
2022-11-24T22:52:46.661Z,42.90
2022-11-24T22:55:17.371Z,46.47
2022-11-24T22:57:48.698Z,44.60
2022-11-24T23:00:19.993Z,45.23
2022-11-24T23:02:51.100Z,52.97
2022-11-24T23:05:22.505Z,46.23
2022-11-24T23:07:53.150Z,43.57
2022-11-24T23:10:23.952Z,45.23
2022-11-24T23:12:56.010Z,42.33
2022-11-24T23:15:27.834Z,42.60
2022-11-24T23:18:01.137Z,42.77
2022-11-24T23:20:32.975Z,42.07
2022-11-24T23:23:04.015Z,47.37
2022-11-24T23:25:36.148Z,47.63
2022-11-24T23:28:06.776Z,48.80
2022-11-24T23:30:38.807Z,46.80
2022-11-24T23:33:09.388Z,45.03
2022-11-24T23:35:40.055Z,50.63
2022-11-24T23:38:10.686Z,44.20
2022-11-24T23:40:41.543Z,43.47
2022-11-24T23:43:12.186Z,43.70
2022-11-24T23:45:42.653Z,45.03
2022-11-24T23:48:13.249Z,42.57
2022-11-24T23:50:43.982Z,39.03
2022-11-24T23:53:14.568Z,40.43
2022-11-24T23:55:45.064Z,41.57
2022-11-24T23:58:15.597Z,39.17
